sensor_id;sensor_type;location;lat;lon;timestamp;P1;durP1;ratioP1;P2;durP2;ratioP2
72584;SDS011;60618;40.084;32.908;2023-04-06T00:00:24;13.43;;;6.90;;
72584;SDS011;60618;40.084;32.908;2023-04-06T00:02:51;13.90;;;7.50;;
72584;SDS011;60618;40.084;32.908;2023-04-06T00:05:19;13.10;;;6.43;;
72584;SDS011;60618;40.084;32.908;2023-04-06T00:07:46;13.80;;;6.80;;
72584;SDS011;60618;40.084;32.908;2023-04-06T00:10:13;14.35;;;7.07;;
72584;SDS011;60618;40.084;32.908;2023-04-06T00:12:39;15.23;;;7.07;;
72584;SDS011;60618;40.084;32.908;2023-04-06T00:15:06;15.60;;;7.65;;
72584;SDS011;60618;40.084;32.908;2023-04-06T00:17:34;16.67;;;8.60;;
72584;SDS011;60618;40.084;32.908;2023-04-06T00:20:01;23.13;;;11.13;;
72584;SDS011;60618;40.084;32.908;2023-04-06T00:22:27;24.05;;;10.80;;
72584;SDS011;60618;40.084;32.908;2023-04-06T00:24:54;23.03;;;10.83;;
72584;SDS011;60618;40.084;32.908;2023-04-06T00:27:21;22.88;;;10.80;;
72584;SDS011;60618;40.084;32.908;2023-04-06T00:29:48;23.05;;;10.05;;
72584;SDS011;60618;40.084;32.908;2023-04-06T00:32:15;21.85;;;9.52;;
72584;SDS011;60618;40.084;32.908;2023-04-06T00:34:42;21.33;;;9.98;;
72584;SDS011;60618;40.084;32.908;2023-04-06T00:37:10;21.70;;;9.83;;
72584;SDS011;60618;40.084;32.908;2023-04-06T00:39:37;20.15;;;9.23;;
72584;SDS011;60618;40.084;32.908;2023-04-06T00:42:10;20.15;;;8.65;;
72584;SDS011;60618;40.084;32.908;2023-04-06T00:44:38;19.77;;;9.77;;
72584;SDS011;60618;40.084;32.908;2023-04-06T00:47:06;21.98;;;9.95;;
72584;SDS011;60618;40.084;32.908;2023-04-06T00:49:34;19.97;;;9.47;;
72584;SDS011;60618;40.084;32.908;2023-04-06T00:52:01;13.23;;;6.25;;
72584;SDS011;60618;40.084;32.908;2023-04-06T00:54:28;8.40;;;3.78;;
72584;SDS011;60618;40.084;32.908;2023-04-06T00:56:55;7.72;;;3.58;;
72584;SDS011;60618;40.084;32.908;2023-04-06T00:59:23;8.07;;;4.03;;
72584;SDS011;60618;40.084;32.908;2023-04-06T01:01:50;11.60;;;5.23;;
72584;SDS011;60618;40.084;32.908;2023-04-06T01:04:17;13.18;;;6.43;;
72584;SDS011;60618;40.084;32.908;2023-04-06T01:06:44;11.35;;;5.57;;
72584;SDS011;60618;40.084;32.908;2023-04-06T01:09:11;14.80;;;7.15;;
72584;SDS011;60618;40.084;32.908;2023-04-06T01:11:38;15.05;;;6.30;;
72584;SDS011;60618;40.084;32.908;2023-04-06T01:14:05;14.03;;;6.13;;
72584;SDS011;60618;40.084;32.908;2023-04-06T01:16:32;13.55;;;6.43;;
72584;SDS011;60618;40.084;32.908;2023-04-06T01:19:00;14.05;;;6.95;;
72584;SDS011;60618;40.084;32.908;2023-04-06T01:21:27;14.60;;;7.10;;
72584;SDS011;60618;40.084;32.908;2023-04-06T01:23:54;13.82;;;7.20;;
72584;SDS011;60618;40.084;32.908;2023-04-06T01:26:21;14.33;;;7.13;;
72584;SDS011;60618;40.084;32.908;2023-04-06T01:28:47;12.90;;;6.97;;
72584;SDS011;60618;40.084;32.908;2023-04-06T01:31:15;15.13;;;7.95;;
72584;SDS011;60618;40.084;32.908;2023-04-06T01:33:42;13.65;;;7.75;;
72584;SDS011;60618;40.084;32.908;2023-04-06T01:36:08;13.30;;;7.40;;
72584;SDS011;60618;40.084;32.908;2023-04-06T01:38:35;12.27;;;5.90;;
72584;SDS011;60618;40.084;32.908;2023-04-06T01:41:02;11.88;;;6.45;;
72584;SDS011;60618;40.084;32.908;2023-04-06T01:43:29;12.05;;;6.68;;
72584;SDS011;60618;40.084;32.908;2023-04-06T01:45:56;11.82;;;6.22;;
72584;SDS011;60618;40.084;32.908;2023-04-06T01:48:23;13.68;;;7.35;;
72584;SDS011;60618;40.084;32.908;2023-04-06T01:50:50;13.97;;;7.70;;
72584;SDS011;60618;40.084;32.908;2023-04-06T01:53:17;13.40;;;7.70;;
72584;SDS011;60618;40.084;32.908;2023-04-06T01:55:44;15.70;;;7.68;;
72584;SDS011;60618;40.084;32.908;2023-04-06T01:58:11;16.25;;;8.23;;
72584;SDS011;60618;40.084;32.908;2023-04-06T02:00:39;14.88;;;8.43;;
72584;SDS011;60618;40.084;32.908;2023-04-06T02:03:06;15.98;;;8.35;;
72584;SDS011;60618;40.084;32.908;2023-04-06T02:05:33;15.43;;;8.77;;
72584;SDS011;60618;40.084;32.908;2023-04-06T02:08:00;15.25;;;8.38;;
72584;SDS011;60618;40.084;32.908;2023-04-06T02:10:27;15.77;;;8.80;;
72584;SDS011;60618;40.084;32.908;2023-04-06T02:12:54;16.77;;;9.40;;
72584;SDS011;60618;40.084;32.908;2023-04-06T02:15:21;15.13;;;8.90;;
72584;SDS011;60618;40.084;32.908;2023-04-06T02:17:48;15.63;;;8.90;;
72584;SDS011;60618;40.084;32.908;2023-04-06T02:20:15;16.65;;;9.43;;
72584;SDS011;60618;40.084;32.908;2023-04-06T02:22:42;16.33;;;9.95;;
72584;SDS011;60618;40.084;32.908;2023-04-06T02:25:08;17.25;;;9.93;;
72584;SDS011;60618;40.084;32.908;2023-04-06T02:27:36;17.20;;;10.00;;
72584;SDS011;60618;40.084;32.908;2023-04-06T02:30:03;18.07;;;10.30;;
72584;SDS011;60618;40.084;32.908;2023-04-06T02:32:30;16.95;;;10.40;;
72584;SDS011;60618;40.084;32.908;2023-04-06T02:34:57;16.42;;;9.18;;
72584;SDS011;60618;40.084;32.908;2023-04-06T02:37:24;17.08;;;9.35;;
72584;SDS011;60618;40.084;32.908;2023-04-06T02:39:51;15.90;;;9.27;;
72584;SDS011;60618;40.084;32.908;2023-04-06T02:42:18;16.77;;;9.47;;
72584;SDS011;60618;40.084;32.908;2023-04-06T02:44:45;19.75;;;10.65;;
72584;SDS011;60618;40.084;32.908;2023-04-06T02:47:12;19.25;;;11.38;;
72584;SDS011;60618;40.084;32.908;2023-04-06T02:49:39;21.73;;;11.85;;
72584;SDS011;60618;40.084;32.908;2023-04-06T02:52:06;20.65;;;11.68;;
72584;SDS011;60618;40.084;32.908;2023-04-06T02:54:33;20.90;;;11.60;;
72584;SDS011;60618;40.084;32.908;2023-04-06T02:57:00;20.17;;;12.00;;
72584;SDS011;60618;40.084;32.908;2023-04-06T02:59:27;20.88;;;11.82;;
72584;SDS011;60618;40.084;32.908;2023-04-06T03:01:54;22.92;;;11.70;;
72584;SDS011;60618;40.084;32.908;2023-04-06T03:04:21;21.85;;;12.18;;
72584;SDS011;60618;40.084;32.908;2023-04-06T03:06:47;23.83;;;12.73;;
72584;SDS011;60618;40.084;32.908;2023-04-06T03:09:14;23.08;;;12.35;;
72584;SDS011;60618;40.084;32.908;2023-04-06T03:11:41;19.65;;;11.02;;
72584;SDS011;60618;40.084;32.908;2023-04-06T03:14:08;21.00;;;11.68;;
72584;SDS011;60618;40.084;32.908;2023-04-06T03:16:35;21.00;;;11.40;;
72584;SDS011;60618;40.084;32.908;2023-04-06T03:19:02;23.73;;;12.00;;
72584;SDS011;60618;40.084;32.908;2023-04-06T03:21:29;25.27;;;12.75;;
72584;SDS011;60618;40.084;32.908;2023-04-06T03:23:56;22.92;;;12.35;;
72584;SDS011;60618;40.084;32.908;2023-04-06T03:26:22;21.55;;;11.43;;
72584;SDS011;60618;40.084;32.908;2023-04-06T03:28:49;22.08;;;11.25;;
72584;SDS011;60618;40.084;32.908;2023-04-06T03:31:16;22.73;;;11.40;;
72584;SDS011;60618;40.084;32.908;2023-04-06T03:33:43;20.48;;;10.48;;
72584;SDS011;60618;40.084;32.908;2023-04-06T03:36:13;19.30;;;9.95;;
72584;SDS011;60618;40.084;32.908;2023-04-06T03:38:40;19.90;;;10.40;;
72584;SDS011;60618;40.084;32.908;2023-04-06T03:41:07;20.40;;;10.18;;
72584;SDS011;60618;40.084;32.908;2023-04-06T03:43:34;20.43;;;10.43;;
72584;SDS011;60618;40.084;32.908;2023-04-06T03:46:00;18.50;;;10.00;;
72584;SDS011;60618;40.084;32.908;2023-04-06T03:48:27;17.75;;;9.20;;
72584;SDS011;60618;40.084;32.908;2023-04-06T03:50:54;17.85;;;9.13;;
72584;SDS011;60618;40.084;32.908;2023-04-06T03:53:21;17.08;;;8.55;;
72584;SDS011;60618;40.084;32.908;2023-04-06T03:55:48;17.33;;;8.30;;
72584;SDS011;60618;40.084;32.908;2023-04-06T03:58:15;17.98;;;8.82;;
72584;SDS011;60618;40.084;32.908;2023-04-06T04:00:42;18.70;;;9.43;;
72584;SDS011;60618;40.084;32.908;2023-04-06T04:03:09;16.92;;;8.82;;
72584;SDS011;60618;40.084;32.908;2023-04-06T04:05:36;18.00;;;9.10;;
72584;SDS011;60618;40.084;32.908;2023-04-06T04:08:02;20.30;;;10.03;;
72584;SDS011;60618;40.084;32.908;2023-04-06T04:10:29;19.38;;;9.50;;
72584;SDS011;60618;40.084;32.908;2023-04-06T04:12:56;18.92;;;9.20;;
72584;SDS011;60618;40.084;32.908;2023-04-06T04:15:23;20.45;;;10.63;;
72584;SDS011;60618;40.084;32.908;2023-04-06T04:17:50;21.55;;;10.27;;
72584;SDS011;60618;40.084;32.908;2023-04-06T04:20:17;20.47;;;10.07;;
72584;SDS011;60618;40.084;32.908;2023-04-06T04:22:44;20.30;;;9.65;;
72584;SDS011;60618;40.084;32.908;2023-04-06T04:25:11;15.82;;;7.47;;
72584;SDS011;60618;40.084;32.908;2023-04-06T04:27:38;14.82;;;7.47;;
72584;SDS011;60618;40.084;32.908;2023-04-06T04:30:05;14.82;;;7.22;;
72584;SDS011;60618;40.084;32.908;2023-04-06T04:32:32;11.93;;;6.30;;
72584;SDS011;60618;40.084;32.908;2023-04-06T04:34:59;13.00;;;6.63;;
72584;SDS011;60618;40.084;32.908;2023-04-06T04:37:26;16.63;;;8.35;;
72584;SDS011;60618;40.084;32.908;2023-04-06T04:39:53;16.90;;;8.88;;
72584;SDS011;60618;40.084;32.908;2023-04-06T04:42:20;17.48;;;8.50;;
72584;SDS011;60618;40.084;32.908;2023-04-06T04:44:47;17.57;;;8.33;;
72584;SDS011;60618;40.084;32.908;2023-04-06T04:47:13;15.98;;;8.23;;
72584;SDS011;60618;40.084;32.908;2023-04-06T04:49:40;16.02;;;8.50;;
72584;SDS011;60618;40.084;32.908;2023-04-06T04:52:07;15.00;;;7.63;;
72584;SDS011;60618;40.084;32.908;2023-04-06T04:54:34;10.57;;;5.32;;
72584;SDS011;60618;40.084;32.908;2023-04-06T04:57:01;11.53;;;6.43;;
72584;SDS011;60618;40.084;32.908;2023-04-06T04:59:28;10.90;;;5.90;;
72584;SDS011;60618;40.084;32.908;2023-04-06T05:01:55;11.18;;;5.82;;
72584;SDS011;60618;40.084;32.908;2023-04-06T05:04:22;12.30;;;6.10;;
72584;SDS011;60618;40.084;32.908;2023-04-06T05:06:48;10.27;;;5.50;;
72584;SDS011;60618;40.084;32.908;2023-04-06T05:09:15;10.60;;;5.50;;
72584;SDS011;60618;40.084;32.908;2023-04-06T05:11:42;9.85;;;5.13;;
72584;SDS011;60618;40.084;32.908;2023-04-06T05:14:09;10.02;;;6.07;;
72584;SDS011;60618;40.084;32.908;2023-04-06T05:16:36;11.30;;;6.65;;
72584;SDS011;60618;40.084;32.908;2023-04-06T05:19:03;13.70;;;6.97;;
72584;SDS011;60618;40.084;32.908;2023-04-06T05:21:30;13.63;;;7.93;;
72584;SDS011;60618;40.084;32.908;2023-04-06T05:23:57;13.98;;;8.07;;
72584;SDS011;60618;40.084;32.908;2023-04-06T05:26:24;14.88;;;8.52;;
72584;SDS011;60618;40.084;32.908;2023-04-06T05:28:51;13.40;;;8.02;;
72584;SDS011;60618;40.084;32.908;2023-04-06T05:31:18;12.52;;;7.32;;
72584;SDS011;60618;40.084;32.908;2023-04-06T05:33:45;12.40;;;6.87;;
72584;SDS011;60618;40.084;32.908;2023-04-06T05:36:12;11.88;;;6.00;;
72584;SDS011;60618;40.084;32.908;2023-04-06T05:38:40;10.13;;;5.70;;
72584;SDS011;60618;40.084;32.908;2023-04-06T05:41:07;11.43;;;6.47;;
72584;SDS011;60618;40.084;32.908;2023-04-06T05:43:34;13.20;;;6.75;;
72584;SDS011;60618;40.084;32.908;2023-04-06T05:46:01;11.37;;;5.97;;
72584;SDS011;60618;40.084;32.908;2023-04-06T05:48:28;12.18;;;6.95;;
72584;SDS011;60618;40.084;32.908;2023-04-06T05:50:55;9.93;;;6.32;;
72584;SDS011;60618;40.084;32.908;2023-04-06T05:53:22;8.93;;;5.20;;
72584;SDS011;60618;40.084;32.908;2023-04-06T05:55:49;9.55;;;5.78;;
72584;SDS011;60618;40.084;32.908;2023-04-06T05:58:16;11.43;;;6.80;;
72584;SDS011;60618;40.084;32.908;2023-04-06T06:00:43;9.18;;;5.78;;
72584;SDS011;60618;40.084;32.908;2023-04-06T06:03:09;8.52;;;5.10;;
72584;SDS011;60618;40.084;32.908;2023-04-06T06:05:36;7.75;;;4.70;;
72584;SDS011;60618;40.084;32.908;2023-04-06T06:08:03;8.30;;;5.18;;
72584;SDS011;60618;40.084;32.908;2023-04-06T06:10:30;10.20;;;5.30;;
72584;SDS011;60618;40.084;32.908;2023-04-06T06:12:57;8.05;;;5.28;;
72584;SDS011;60618;40.084;32.908;2023-04-06T06:15:24;8.65;;;5.55;;
72584;SDS011;60618;40.084;32.908;2023-04-06T06:17:51;8.48;;;5.03;;
72584;SDS011;60618;40.084;32.908;2023-04-06T06:20:18;9.85;;;6.20;;
72584;SDS011;60618;40.084;32.908;2023-04-06T06:22:45;11.93;;;7.03;;
72584;SDS011;60618;40.084;32.908;2023-04-06T06:25:12;10.45;;;6.65;;
72584;SDS011;60618;40.084;32.908;2023-04-06T06:27:39;12.18;;;7.70;;
72584;SDS011;60618;40.084;32.908;2023-04-06T06:30:06;13.27;;;8.02;;
72584;SDS011;60618;40.084;32.908;2023-04-06T06:32:33;12.52;;;7.60;;
72584;SDS011;60618;40.084;32.908;2023-04-06T06:35:00;10.13;;;6.40;;
72584;SDS011;60618;40.084;32.908;2023-04-06T06:37:27;10.00;;;6.70;;
72584;SDS011;60618;40.084;32.908;2023-04-06T06:39:56;11.60;;;6.82;;
72584;SDS011;60618;40.084;32.908;2023-04-06T06:42:23;11.68;;;7.38;;
72584;SDS011;60618;40.084;32.908;2023-04-06T06:44:50;9.02;;;5.95;;
72584;SDS011;60618;40.084;32.908;2023-04-06T06:47:17;8.17;;;5.17;;
72584;SDS011;60618;40.084;32.908;2023-04-06T06:49:44;8.38;;;5.18;;
72584;SDS011;60618;40.084;32.908;2023-04-06T06:52:11;7.38;;;4.40;;
72584;SDS011;60618;40.084;32.908;2023-04-06T06:54:38;6.68;;;4.50;;
72584;SDS011;60618;40.084;32.908;2023-04-06T06:57:05;7.90;;;4.40;;
72584;SDS011;60618;40.084;32.908;2023-04-06T06:59:32;7.00;;;4.90;;
72584;SDS011;60618;40.084;32.908;2023-04-06T07:01:59;8.73;;;5.50;;
72584;SDS011;60618;40.084;32.908;2023-04-06T07:04:26;8.93;;;6.13;;
72584;SDS011;60618;40.084;32.908;2023-04-06T07:06:53;8.82;;;5.88;;
72584;SDS011;60618;40.084;32.908;2023-04-06T07:09:20;7.22;;;4.65;;
72584;SDS011;60618;40.084;32.908;2023-04-06T07:11:47;8.33;;;5.30;;
72584;SDS011;60618;40.084;32.908;2023-04-06T07:14:14;7.88;;;4.80;;
72584;SDS011;60618;40.084;32.908;2023-04-06T07:16:42;7.57;;;4.10;;
72584;SDS011;60618;40.084;32.908;2023-04-06T07:19:09;7.97;;;4.90;;
72584;SDS011;60618;40.084;32.908;2023-04-06T07:21:35;8.45;;;6.10;;
72584;SDS011;60618;40.084;32.908;2023-04-06T07:24:02;8.27;;;5.30;;
72584;SDS011;60618;40.084;32.908;2023-04-06T07:26:29;8.00;;;5.18;;
72584;SDS011;60618;40.084;32.908;2023-04-06T07:28:56;8.55;;;5.75;;
72584;SDS011;60618;40.084;32.908;2023-04-06T07:31:23;8.32;;;5.30;;
72584;SDS011;60618;40.084;32.908;2023-04-06T07:33:50;9.60;;;5.70;;
72584;SDS011;60618;40.084;32.908;2023-04-06T07:36:17;8.67;;;5.00;;
72584;SDS011;60618;40.084;32.908;2023-04-06T07:38:44;6.07;;;3.70;;
72584;SDS011;60618;40.084;32.908;2023-04-06T07:41:11;7.43;;;4.13;;
72584;SDS011;60618;40.084;32.908;2023-04-06T07:43:38;7.38;;;4.50;;
72584;SDS011;60618;40.084;32.908;2023-04-06T07:46:08;8.80;;;5.38;;
72584;SDS011;60618;40.084;32.908;2023-04-06T07:48:35;8.87;;;5.33;;
72584;SDS011;60618;40.084;32.908;2023-04-06T07:51:02;7.95;;;4.82;;
72584;SDS011;60618;40.084;32.908;2023-04-06T07:53:30;9.52;;;5.15;;
72584;SDS011;60618;40.084;32.908;2023-04-06T07:55:59;7.47;;;4.22;;
72584;SDS011;60618;40.084;32.908;2023-04-06T07:58:26;7.05;;;4.80;;
72584;SDS011;60618;40.084;32.908;2023-04-06T08:00:53;9.70;;;5.73;;
72584;SDS011;60618;40.084;32.908;2023-04-06T08:03:20;8.27;;;5.00;;
72584;SDS011;60618;40.084;32.908;2023-04-06T08:05:47;8.93;;;5.75;;
72584;SDS011;60618;40.084;32.908;2023-04-06T08:08:14;9.68;;;5.90;;
72584;SDS011;60618;40.084;32.908;2023-04-06T08:10:41;9.52;;;5.68;;
72584;SDS011;60618;40.084;32.908;2023-04-06T08:13:08;10.03;;;6.00;;
72584;SDS011;60618;40.084;32.908;2023-04-06T08:15:35;10.90;;;6.28;;
72584;SDS011;60618;40.084;32.908;2023-04-06T08:18:02;8.05;;;4.53;;
72584;SDS011;60618;40.084;32.908;2023-04-06T08:20:29;7.78;;;4.00;;
72584;SDS011;60618;40.084;32.908;2023-04-06T08:22:56;5.53;;;3.58;;
72584;SDS011;60618;40.084;32.908;2023-04-06T08:25:23;6.10;;;3.63;;
72584;SDS011;60618;40.084;32.908;2023-04-06T08:27:50;6.05;;;3.55;;
72584;SDS011;60618;40.084;32.908;2023-04-06T08:30:17;6.95;;;4.13;;
72584;SDS011;60618;40.084;32.908;2023-04-06T08:32:47;6.32;;;4.25;;
72584;SDS011;60618;40.084;32.908;2023-04-06T08:35:14;6.57;;;4.35;;
72584;SDS011;60618;40.084;32.908;2023-04-06T08:37:41;6.60;;;3.97;;
72584;SDS011;60618;40.084;32.908;2023-04-06T08:40:08;7.00;;;4.07;;
72584;SDS011;60618;40.084;32.908;2023-04-06T08:42:38;7.13;;;3.80;;
72584;SDS011;60618;40.084;32.908;2023-04-06T08:45:08;6.60;;;3.40;;
72584;SDS011;60618;40.084;32.908;2023-04-06T08:47:36;5.88;;;3.40;;
72584;SDS011;60618;40.084;32.908;2023-04-06T08:50:03;6.70;;;3.50;;
72584;SDS011;60618;40.084;32.908;2023-04-06T08:52:31;6.57;;;3.15;;
72584;SDS011;60618;40.084;32.908;2023-04-06T08:54:59;6.97;;;3.85;;
72584;SDS011;60618;40.084;32.908;2023-04-06T08:57:26;8.10;;;4.40;;
72584;SDS011;60618;40.084;32.908;2023-04-06T08:59:53;6.97;;;4.15;;
72584;SDS011;60618;40.084;32.908;2023-04-06T09:02:21;5.60;;;3.03;;
72584;SDS011;60618;40.084;32.908;2023-04-06T09:04:49;7.13;;;3.35;;
72584;SDS011;60618;40.084;32.908;2023-04-06T09:07:19;5.95;;;3.28;;
72584;SDS011;60618;40.084;32.908;2023-04-06T09:09:47;5.25;;;3.20;;
72584;SDS011;60618;40.084;32.908;2023-04-06T09:12:27;6.45;;;3.38;;
72584;SDS011;60618;40.084;32.908;2023-04-06T09:14:55;5.70;;;3.17;;
72584;SDS011;60618;40.084;32.908;2023-04-06T09:17:24;5.97;;;3.60;;
72584;SDS011;60618;40.084;32.908;2023-04-06T09:19:52;5.80;;;3.40;;
72584;SDS011;60618;40.084;32.908;2023-04-06T09:22:19;5.45;;;3.25;;
72584;SDS011;60618;40.084;32.908;2023-04-06T09:24:50;5.68;;;3.40;;
72584;SDS011;60618;40.084;32.908;2023-04-06T09:30:25;5.63;;;3.50;;
72584;SDS011;60618;40.084;32.908;2023-04-06T09:32:53;5.93;;;3.78;;
72584;SDS011;60618;40.084;32.908;2023-04-06T09:35:21;5.10;;;3.45;;
72584;SDS011;60618;40.084;32.908;2023-04-06T09:37:50;5.47;;;3.42;;
72584;SDS011;60618;40.084;32.908;2023-04-06T09:40:18;5.43;;;3.10;;
72584;SDS011;60618;40.084;32.908;2023-04-06T09:42:46;4.60;;;2.88;;
72584;SDS011;60618;40.084;32.908;2023-04-06T09:45:14;5.57;;;2.80;;
72584;SDS011;60618;40.084;32.908;2023-04-06T09:47:42;6.13;;;3.25;;
72584;SDS011;60618;40.084;32.908;2023-04-06T09:50:11;5.10;;;2.72;;
72584;SDS011;60618;40.084;32.908;2023-04-06T09:55:09;5.63;;;3.03;;
72584;SDS011;60618;40.084;32.908;2023-04-06T09:57:57;7.57;;;3.08;;
72584;SDS011;60618;40.084;32.908;2023-04-06T10:00:51;6.85;;;3.30;;
72584;SDS011;60618;40.084;32.908;2023-04-06T10:06:13;5.60;;;3.10;;
72584;SDS011;60618;40.084;32.908;2023-04-06T10:08:43;5.38;;;3.42;;
72584;SDS011;60618;40.084;32.908;2023-04-06T10:11:14;5.82;;;3.28;;
72584;SDS011;60618;40.084;32.908;2023-04-06T10:13:41;4.78;;;2.83;;
72584;SDS011;60618;40.084;32.908;2023-04-06T10:16:08;5.57;;;3.10;;
72584;SDS011;60618;40.084;32.908;2023-04-06T10:18:36;5.03;;;2.93;;
72584;SDS011;60618;40.084;32.908;2023-04-06T10:21:08;6.80;;;3.50;;
72584;SDS011;60618;40.084;32.908;2023-04-06T10:23:47;6.63;;;3.80;;
72584;SDS011;60618;40.084;32.908;2023-04-06T10:26:17;6.50;;;3.63;;
72584;SDS011;60618;40.084;32.908;2023-04-06T10:28:47;6.32;;;3.42;;
72584;SDS011;60618;40.084;32.908;2023-04-06T10:31:15;5.90;;;3.20;;
72584;SDS011;60618;40.084;32.908;2023-04-06T10:36:28;6.55;;;3.40;;
72584;SDS011;60618;40.084;32.908;2023-04-06T10:38:59;5.72;;;3.17;;
72584;SDS011;60618;40.084;32.908;2023-04-06T10:41:34;5.40;;;2.85;;
72584;SDS011;60618;40.084;32.908;2023-04-06T10:44:02;5.53;;;2.80;;
72584;SDS011;60618;40.084;32.908;2023-04-06T10:46:30;4.70;;;2.55;;
72584;SDS011;60618;40.084;32.908;2023-04-06T10:48:58;7.05;;;3.92;;
72584;SDS011;60618;40.084;32.908;2023-04-06T10:51:37;6.15;;;3.20;;
72584;SDS011;60618;40.084;32.908;2023-04-06T10:54:07;5.60;;;2.72;;
72584;SDS011;60618;40.084;32.908;2023-04-06T10:56:36;5.00;;;3.00;;
72584;SDS011;60618;40.084;32.908;2023-04-06T10:59:03;5.07;;;2.80;;
72584;SDS011;60618;40.084;32.908;2023-04-06T11:01:32;5.15;;;2.83;;
72584;SDS011;60618;40.084;32.908;2023-04-06T11:03:59;5.18;;;3.15;;
72584;SDS011;60618;40.084;32.908;2023-04-06T11:06:27;5.82;;;2.80;;
72584;SDS011;60618;40.084;32.908;2023-04-06T11:08:57;6.60;;;3.10;;
72584;SDS011;60618;40.084;32.908;2023-04-06T11:11:25;5.18;;;2.88;;
72584;SDS011;60618;40.084;32.908;2023-04-06T11:13:54;6.05;;;2.88;;
72584;SDS011;60618;40.084;32.908;2023-04-06T11:16:24;4.72;;;2.47;;
72584;SDS011;60618;40.084;32.908;2023-04-06T11:21:31;5.33;;;3.13;;
72584;SDS011;60618;40.084;32.908;2023-04-06T11:24:07;5.70;;;3.20;;
72584;SDS011;60618;40.084;32.908;2023-04-06T11:26:44;4.85;;;2.65;;
72584;SDS011;60618;40.084;32.908;2023-04-06T11:29:11;5.47;;;3.20;;
72584;SDS011;60618;40.084;32.908;2023-04-06T11:31:44;5.53;;;3.03;;
72584;SDS011;60618;40.084;32.908;2023-04-06T11:34:13;5.13;;;3.07;;
72584;SDS011;60618;40.084;32.908;2023-04-06T11:36:43;5.43;;;3.20;;
72584;SDS011;60618;40.084;32.908;2023-04-06T11:39:18;5.50;;;2.75;;
72584;SDS011;60618;40.084;32.908;2023-04-06T11:41:49;5.90;;;2.70;;
72584;SDS011;60618;40.084;32.908;2023-04-06T11:44:37;4.75;;;2.78;;
72584;SDS011;60618;40.084;32.908;2023-04-06T11:47:10;6.63;;;2.90;;
72584;SDS011;60618;40.084;32.908;2023-04-06T11:49:38;5.57;;;2.58;;
72584;SDS011;60618;40.084;32.908;2023-04-06T11:52:20;4.40;;;2.70;;
72584;SDS011;60618;40.084;32.908;2023-04-06T11:54:51;6.10;;;3.13;;
72584;SDS011;60618;40.084;32.908;2023-04-06T11:57:19;5.07;;;3.15;;
72584;SDS011;60618;40.084;32.908;2023-04-06T11:59:47;4.97;;;2.97;;
72584;SDS011;60618;40.084;32.908;2023-04-06T12:02:14;5.25;;;2.53;;
72584;SDS011;60618;40.084;32.908;2023-04-06T12:04:41;4.85;;;2.47;;
72584;SDS011;60618;40.084;32.908;2023-04-06T12:07:08;6.00;;;2.78;;
72584;SDS011;60618;40.084;32.908;2023-04-06T12:09:35;5.60;;;2.65;;
72584;SDS011;60618;40.084;32.908;2023-04-06T12:12:03;5.30;;;2.33;;
72584;SDS011;60618;40.084;32.908;2023-04-06T12:14:30;4.82;;;2.70;;
72584;SDS011;60618;40.084;32.908;2023-04-06T12:16:57;4.20;;;2.20;;
72584;SDS011;60618;40.084;32.908;2023-04-06T12:19:24;4.68;;;2.40;;
72584;SDS011;60618;40.084;32.908;2023-04-06T12:21:52;5.85;;;2.80;;
72584;SDS011;60618;40.084;32.908;2023-04-06T12:24:20;5.53;;;2.30;;
72584;SDS011;60618;40.084;32.908;2023-04-06T12:26:47;5.55;;;2.40;;
72584;SDS011;60618;40.084;32.908;2023-04-06T12:29:19;4.50;;;2.40;;
72584;SDS011;60618;40.084;32.908;2023-04-06T12:31:46;4.70;;;2.25;;
72584;SDS011;60618;40.084;32.908;2023-04-06T12:34:13;4.68;;;2.50;;
72584;SDS011;60618;40.084;32.908;2023-04-06T12:36:40;4.97;;;2.30;;
72584;SDS011;60618;40.084;32.908;2023-04-06T12:39:07;4.05;;;2.08;;
72584;SDS011;60618;40.084;32.908;2023-04-06T12:41:33;4.30;;;2.25;;
72584;SDS011;60618;40.084;32.908;2023-04-06T12:44:00;4.40;;;2.30;;
72584;SDS011;60618;40.084;32.908;2023-04-06T12:46:27;5.32;;;2.30;;
72584;SDS011;60618;40.084;32.908;2023-04-06T12:48:54;4.93;;;2.47;;
72584;SDS011;60618;40.084;32.908;2023-04-06T12:51:21;4.55;;;2.42;;
72584;SDS011;60618;40.084;32.908;2023-04-06T12:53:48;4.78;;;2.00;;
72584;SDS011;60618;40.084;32.908;2023-04-06T12:56:16;3.97;;;2.00;;
72584;SDS011;60618;40.084;32.908;2023-04-06T12:58:44;5.35;;;2.03;;
72584;SDS011;60618;40.084;32.908;2023-04-06T13:01:12;5.03;;;2.20;;
72584;SDS011;60618;40.084;32.908;2023-04-06T13:03:40;4.70;;;2.42;;
72584;SDS011;60618;40.084;32.908;2023-04-06T13:06:07;4.68;;;2.20;;
72584;SDS011;60618;40.084;32.908;2023-04-06T13:08:35;6.93;;;2.58;;
72584;SDS011;60618;40.084;32.908;2023-04-06T13:11:03;5.05;;;2.50;;
72584;SDS011;60618;40.084;32.908;2023-04-06T13:13:31;4.10;;;2.00;;
72584;SDS011;60618;40.084;32.908;2023-04-06T13:16:01;4.30;;;2.00;;
72584;SDS011;60618;40.084;32.908;2023-04-06T13:18:30;4.35;;;2.40;;
72584;SDS011;60618;40.084;32.908;2023-04-06T13:20:58;5.55;;;2.20;;
72584;SDS011;60618;40.084;32.908;2023-04-06T13:23:25;4.07;;;2.00;;
72584;SDS011;60618;40.084;32.908;2023-04-06T13:25:59;4.80;;;2.40;;
72584;SDS011;60618;40.084;32.908;2023-04-06T13:28:34;4.82;;;2.50;;
72584;SDS011;60618;40.084;32.908;2023-04-06T13:31:02;4.80;;;2.55;;
72584;SDS011;60618;40.084;32.908;2023-04-06T13:33:29;4.80;;;2.60;;
72584;SDS011;60618;40.084;32.908;2023-04-06T13:35:57;5.38;;;2.80;;
72584;SDS011;60618;40.084;32.908;2023-04-06T13:38:25;5.27;;;2.30;;
72584;SDS011;60618;40.084;32.908;2023-04-06T13:40:52;5.25;;;2.78;;
72584;SDS011;60618;40.084;32.908;2023-04-06T13:43:19;4.40;;;2.42;;
72584;SDS011;60618;40.084;32.908;2023-04-06T13:45:49;5.20;;;2.40;;
72584;SDS011;60618;40.084;32.908;2023-04-06T13:48:18;6.30;;;2.63;;
72584;SDS011;60618;40.084;32.908;2023-04-06T13:50:45;4.20;;;2.37;;
72584;SDS011;60618;40.084;32.908;2023-04-06T13:53:12;5.10;;;2.58;;
72584;SDS011;60618;40.084;32.908;2023-04-06T13:55:39;5.03;;;2.50;;
72584;SDS011;60618;40.084;32.908;2023-04-06T13:58:06;4.40;;;2.60;;
72584;SDS011;60618;40.084;32.908;2023-04-06T14:00:38;6.45;;;2.70;;
72584;SDS011;60618;40.084;32.908;2023-04-06T14:03:05;4.80;;;2.60;;
72584;SDS011;60618;40.084;32.908;2023-04-06T14:05:32;5.00;;;2.70;;
72584;SDS011;60618;40.084;32.908;2023-04-06T14:07:59;5.20;;;2.67;;
72584;SDS011;60618;40.084;32.908;2023-04-06T14:10:27;5.90;;;2.90;;
72584;SDS011;60618;40.084;32.908;2023-04-06T14:12:54;5.63;;;3.05;;
72584;SDS011;60618;40.084;32.908;2023-04-06T14:15:21;6.87;;;2.93;;
72584;SDS011;60618;40.084;32.908;2023-04-06T14:17:48;4.60;;;2.40;;
72584;SDS011;60618;40.084;32.908;2023-04-06T14:20:15;5.10;;;2.90;;
72584;SDS011;60618;40.084;32.908;2023-04-06T14:22:42;4.95;;;2.97;;
72584;SDS011;60618;40.084;32.908;2023-04-06T14:25:09;4.57;;;2.53;;
72584;SDS011;60618;40.084;32.908;2023-04-06T14:27:36;4.60;;;2.70;;
72584;SDS011;60618;40.084;32.908;2023-04-06T14:30:03;4.60;;;2.72;;
72584;SDS011;60618;40.084;32.908;2023-04-06T14:32:30;4.88;;;2.58;;
72584;SDS011;60618;40.084;32.908;2023-04-06T14:34:57;4.53;;;2.60;;
72584;SDS011;60618;40.084;32.908;2023-04-06T14:37:24;4.72;;;2.72;;
72584;SDS011;60618;40.084;32.908;2023-04-06T14:39:51;5.17;;;2.67;;
72584;SDS011;60618;40.084;32.908;2023-04-06T14:42:18;7.18;;;2.70;;
72584;SDS011;60618;40.084;32.908;2023-04-06T14:44:45;4.45;;;2.55;;